sensor_id;sensor_type;location;lat;lon;timestamp;pressure;altitude;pressure_sealevel;temperature;humidity
56456;BME280;42354;53.218;6.564;2023-02-01T00:00:30;47007.81;;;-142.92;69.98
56456;BME280;42354;53.218;6.564;2023-02-01T00:02:55;47018.06;;;-142.92;69.56
56456;BME280;42354;53.218;6.564;2023-02-01T00:05:21;46991.38;;;-142.92;69.73
56456;BME280;42354;53.218;6.564;2023-02-01T00:07:47;47011.91;;;-142.92;69.23
56456;BME280;42354;53.218;6.564;2023-02-01T00:10:13;47016.00;;;-142.92;69.38
56456;BME280;42354;53.218;6.564;2023-02-01T00:12:39;47005.75;;;-142.92;69.41
56456;BME280;42354;53.218;6.564;2023-02-01T00:15:04;47024.22;;;-142.92;69.15
56456;BME280;42354;53.218;6.564;2023-02-01T00:17:30;47013.97;;;-142.92;69.32
56456;BME280;42354;53.218;6.564;2023-02-01T00:19:55;47022.16;;;-142.92;69.16
56456;BME280;42354;53.218;6.564;2023-02-01T00:22:20;46997.53;;;-142.92;69.52
56456;BME280;42354;53.218;6.564;2023-02-01T00:24:46;47003.69;;;-142.92;69.46
56456;BME280;42354;53.218;6.564;2023-02-01T00:27:11;47005.75;;;-142.92;69.31
56456;BME280;42354;53.218;6.564;2023-02-01T00:29:43;47001.66;;;-142.92;69.36
56456;BME280;42354;53.218;6.564;2023-02-01T00:32:08;47022.16;;;-142.92;68.77
56456;BME280;42354;53.218;6.564;2023-02-01T00:34:33;47016.00;;;-142.92;68.80
56456;BME280;42354;53.218;6.564;2023-02-01T00:36:59;47018.06;;;-142.92;68.68
56456;BME280;42354;53.218;6.564;2023-02-01T00:39:25;47009.84;;;-142.92;68.27
56456;BME280;42354;53.218;6.564;2023-02-01T00:41:50;47020.13;;;-142.92;68.53
56456;BME280;42354;53.218;6.564;2023-02-01T00:44:16;47009.84;;;-142.92;68.67
56456;BME280;42354;53.218;6.564;2023-02-01T00:46:41;47011.91;;;-142.92;68.46
56456;BME280;42354;53.218;6.564;2023-02-01T00:49:06;47011.91;;;-142.92;68.22
56456;BME280;42354;53.218;6.564;2023-02-01T00:51:34;47020.13;;;-142.92;67.83
56456;BME280;42354;53.218;6.564;2023-02-01T00:53:59;47009.84;;;-142.92;67.99
56456;BME280;42354;53.218;6.564;2023-02-01T00:56:25;46999.59;;;-142.92;67.92
56456;BME280;42354;53.218;6.564;2023-02-01T00:58:53;47011.91;;;-142.92;67.95
56456;BME280;42354;53.218;6.564;2023-02-01T01:01:23;47011.91;;;-142.92;68.05
56456;BME280;42354;53.218;6.564;2023-02-01T01:03:52;47018.06;;;-142.92;68.01
56456;BME280;42354;53.218;6.564;2023-02-01T01:06:21;47005.75;;;-142.92;68.17
56456;BME280;42354;53.218;6.564;2023-02-01T01:08:47;46991.38;;;-142.92;68.03
56456;BME280;42354;53.218;6.564;2023-02-01T01:11:19;47007.81;;;-142.92;68.57
56456;BME280;42354;53.218;6.564;2023-02-01T01:13:49;47020.13;;;-142.92;68.51
56456;BME280;42354;53.218;6.564;2023-02-01T01:16:14;47028.31;;;-142.92;68.67
56456;BME280;42354;53.218;6.564;2023-02-01T01:18:40;47005.75;;;-142.92;68.34
56456;BME280;42354;53.218;6.564;2023-02-01T01:21:07;46995.50;;;-142.92;68.59
56456;BME280;42354;53.218;6.564;2023-02-01T01:23:34;46997.53;;;-142.92;68.65
56456;BME280;42354;53.218;6.564;2023-02-01T01:26:00;47009.84;;;-142.92;68.90
56456;BME280;42354;53.218;6.564;2023-02-01T01:28:25;47018.06;;;-142.92;68.75
56456;BME280;42354;53.218;6.564;2023-02-01T01:30:51;47011.91;;;-142.92;68.99
56456;BME280;42354;53.218;6.564;2023-02-01T01:33:16;46995.50;;;-142.92;69.36
56456;BME280;42354;53.218;6.564;2023-02-01T01:35:42;47011.91;;;-142.92;69.54
56456;BME280;42354;53.218;6.564;2023-02-01T01:38:09;47026.28;;;-142.92;69.64
56456;BME280;42354;53.218;6.564;2023-02-01T01:40:35;47009.84;;;-142.92;69.66
56456;BME280;42354;53.218;6.564;2023-02-01T01:43:00;47022.16;;;-142.92;70.01
56456;BME280;42354;53.218;6.564;2023-02-01T01:45:33;46987.28;;;-142.92;70.92
56456;BME280;42354;53.218;6.564;2023-02-01T01:48:06;46995.50;;;-142.92;71.28
56456;BME280;42354;53.218;6.564;2023-02-01T01:50:37;46979.06;;;-142.92;71.94
56456;BME280;42354;53.218;6.564;2023-02-01T01:53:06;47003.69;;;-142.92;72.36
56456;BME280;42354;53.218;6.564;2023-02-01T01:55:35;47022.16;;;-142.92;72.80
56456;BME280;42354;53.218;6.564;2023-02-01T01:58:06;47005.75;;;-142.92;73.33
56456;BME280;42354;53.218;6.564;2023-02-01T02:00:32;47007.81;;;-142.92;73.92
56456;BME280;42354;53.218;6.564;2023-02-01T02:03:00;47020.13;;;-142.92;73.95
56456;BME280;42354;53.218;6.564;2023-02-01T02:05:29;47007.81;;;-142.92;74.55
56456;BME280;42354;53.218;6.564;2023-02-01T02:07:58;47020.13;;;-142.92;75.19
56456;BME280;42354;53.218;6.564;2023-02-01T02:10:24;47022.16;;;-142.92;75.53
56456;BME280;42354;53.218;6.564;2023-02-01T02:13:10;46987.28;;;-142.92;76.07
56456;BME280;42354;53.218;6.564;2023-02-01T02:15:42;47009.84;;;-142.92;76.08
56456;BME280;42354;53.218;6.564;2023-02-01T02:18:17;46991.38;;;-142.92;76.41
56456;BME280;42354;53.218;6.564;2023-02-01T02:21:12;46987.28;;;-142.92;76.19
56456;BME280;42354;53.218;6.564;2023-02-01T02:26:46;47011.91;;;-142.92;77.54
56456;BME280;42354;53.218;6.564;2023-02-01T02:29:25;47005.75;;;-142.92;77.81
56456;BME280;42354;53.218;6.564;2023-02-01T02:34:57;46989.34;;;-142.92;78.21
56456;BME280;42354;53.218;6.564;2023-02-01T02:37:41;47007.81;;;-142.92;78.00
56456;BME280;42354;53.218;6.564;2023-02-01T02:43:10;47009.84;;;-142.92;78.64
56456;BME280;42354;53.218;6.564;2023-02-01T02:46:01;47007.81;;;-142.92;79.06
56456;BME280;42354;53.218;6.564;2023-02-01T02:49:09;47018.06;;;-142.92;78.75
56456;BME280;42354;53.218;6.564;2023-02-01T02:51:46;47018.06;;;-142.92;78.98
56456;BME280;42354;53.218;6.564;2023-02-01T02:54:35;46991.38;;;-142.92;78.07
56456;BME280;42354;53.218;6.564;2023-02-01T02:57:14;46991.38;;;-142.92;78.72
56456;BME280;42354;53.218;6.564;2023-02-01T03:00:02;47009.84;;;-142.92;77.51
56456;BME280;42354;53.218;6.564;2023-02-01T03:02:48;47011.91;;;-142.92;77.64
56456;BME280;42354;53.218;6.564;2023-02-01T03:05:37;47016.00;;;-142.92;76.77
56456;BME280;42354;53.218;6.564;2023-02-01T03:08:16;47030.38;;;-142.92;76.90
56456;BME280;42354;53.218;6.564;2023-02-01T03:10:47;46997.53;;;-142.92;76.26
56456;BME280;42354;53.218;6.564;2023-02-01T03:16:23;46999.59;;;-142.92;76.11
56456;BME280;42354;53.218;6.564;2023-02-01T03:19:01;47016.00;;;-142.92;75.67
56456;BME280;42354;53.218;6.564;2023-02-01T03:21:33;47007.81;;;-142.92;75.17
56456;BME280;42354;53.218;6.564;2023-02-01T03:24:05;47007.81;;;-142.92;75.11
56456;BME280;42354;53.218;6.564;2023-02-01T03:26:36;47005.75;;;-142.92;74.74
56456;BME280;42354;53.218;6.564;2023-02-01T03:29:12;47016.00;;;-142.92;74.72
56456;BME280;42354;53.218;6.564;2023-02-01T03:31:39;47013.97;;;-142.92;74.81
56456;BME280;42354;53.218;6.564;2023-02-01T03:34:04;46999.59;;;-142.92;74.34
56456;BME280;42354;53.218;6.564;2023-02-01T03:36:35;47007.81;;;-142.92;74.43
56456;BME280;42354;53.218;6.564;2023-02-01T03:39:09;47011.91;;;-142.92;74.14
56456;BME280;42354;53.218;6.564;2023-02-01T03:41:44;47020.13;;;-142.92;74.52
56456;BME280;42354;53.218;6.564;2023-02-01T03:44:34;47009.84;;;-142.92;74.40
56456;BME280;42354;53.218;6.564;2023-02-01T03:47:15;46993.44;;;-142.92;73.96
56456;BME280;42354;53.218;6.564;2023-02-01T03:49:49;47028.31;;;-142.92;74.38
56456;BME280;42354;53.218;6.564;2023-02-01T03:52:22;46995.50;;;-142.92;74.40
56456;BME280;42354;53.218;6.564;2023-02-01T03:54:52;47003.69;;;-142.92;74.92
56456;BME280;42354;53.218;6.564;2023-02-01T03:57:23;47020.13;;;-142.92;75.74
56456;BME280;42354;53.218;6.564;2023-02-01T03:59:51;47022.16;;;-142.92;76.04
56456;BME280;42354;53.218;6.564;2023-02-01T04:02:17;47005.75;;;-142.92;76.62
56456;BME280;42354;53.218;6.564;2023-02-01T04:04:42;47001.66;;;-142.92;76.55
56456;BME280;42354;53.218;6.564;2023-02-01T04:07:07;46997.53;;;-142.92;76.39
56456;BME280;42354;53.218;6.564;2023-02-01T04:09:33;47011.91;;;-142.92;77.15
56456;BME280;42354;53.218;6.564;2023-02-01T04:11:58;47011.91;;;-142.92;76.63
56456;BME280;42354;53.218;6.564;2023-02-01T04:14:24;46989.34;;;-142.92;76.11
56456;BME280;42354;53.218;6.564;2023-02-01T04:16:49;47003.69;;;-142.92;76.48
56456;BME280;42354;53.218;6.564;2023-02-01T04:19:14;46991.38;;;-142.92;76.06
56456;BME280;42354;53.218;6.564;2023-02-01T04:21:40;47016.00;;;-142.92;76.27
56456;BME280;42354;53.218;6.564;2023-02-01T04:24:05;47024.22;;;-142.92;76.24
56456;BME280;42354;53.218;6.564;2023-02-01T04:26:31;47011.91;;;-142.92;76.35
56456;BME280;42354;53.218;6.564;2023-02-01T04:28:56;46997.53;;;-142.92;75.58
56456;BME280;42354;53.218;6.564;2023-02-01T04:31:21;47009.84;;;-142.92;76.02
56456;BME280;42354;53.218;6.564;2023-02-01T04:33:51;47007.81;;;-142.92;75.93
56456;BME280;42354;53.218;6.564;2023-02-01T04:36:18;46997.53;;;-142.92;76.29
56456;BME280;42354;53.218;6.564;2023-02-01T04:38:45;46997.53;;;-142.92;75.70
56456;BME280;42354;53.218;6.564;2023-02-01T04:41:11;47005.75;;;-142.92;76.27
56456;BME280;42354;53.218;6.564;2023-02-01T04:43:36;47007.81;;;-142.92;76.06
56456;BME280;42354;53.218;6.564;2023-02-01T04:46:01;47024.22;;;-142.92;76.02
56456;BME280;42354;53.218;6.564;2023-02-01T04:48:27;47007.81;;;-142.92;75.76
56456;BME280;42354;53.218;6.564;2023-02-01T04:50:53;47030.38;;;-142.92;75.69
56456;BME280;42354;53.218;6.564;2023-02-01T04:53:18;47038.59;;;-142.92;76.35
56456;BME280;42354;53.218;6.564;2023-02-01T04:55:44;46995.50;;;-142.92;76.05
56456;BME280;42354;53.218;6.564;2023-02-01T04:58:09;47003.69;;;-142.92;76.17
56456;BME280;42354;53.218;6.564;2023-02-01T05:00:36;46983.19;;;-142.92;76.60
56456;BME280;42354;53.218;6.564;2023-02-01T05:03:01;47011.91;;;-142.92;76.64
56456;BME280;42354;53.218;6.564;2023-02-01T05:05:28;46981.13;;;-142.92;75.99
56456;BME280;42354;53.218;6.564;2023-02-01T05:07:53;47007.81;;;-142.92;75.51
56456;BME280;42354;53.218;6.564;2023-02-01T05:10:19;47013.97;;;-142.92;75.97
56456;BME280;42354;53.218;6.564;2023-02-01T05:12:44;46997.53;;;-142.92;76.07
56456;BME280;42354;53.218;6.564;2023-02-01T05:15:29;47007.81;;;-142.92;76.22
56456;BME280;42354;53.218;6.564;2023-02-01T05:17:54;46995.50;;;-142.92;76.02
56456;BME280;42354;53.218;6.564;2023-02-01T05:20:19;47018.06;;;-142.92;76.15
56456;BME280;42354;53.218;6.564;2023-02-01T05:22:46;47030.38;;;-142.92;76.02
56456;BME280;42354;53.218;6.564;2023-02-01T05:25:11;47028.31;;;-142.92;76.64
56456;BME280;42354;53.218;6.564;2023-02-01T05:27:37;47016.00;;;-142.92;76.20
56456;BME280;42354;53.218;6.564;2023-02-01T05:30:04;47013.97;;;-142.92;76.17
56456;BME280;42354;53.218;6.564;2023-02-01T05:32:29;47011.91;;;-142.92;75.78
56456;BME280;42354;53.218;6.564;2023-02-01T05:34:55;47016.00;;;-142.92;75.76
56456;BME280;42354;53.218;6.564;2023-02-01T05:37:20;47018.06;;;-142.92;75.88
56456;BME280;42354;53.218;6.564;2023-02-01T05:39:45;46991.38;;;-142.92;76.13
56456;BME280;42354;53.218;6.564;2023-02-01T05:42:11;47011.91;;;-142.92;76.10
56456;BME280;42354;53.218;6.564;2023-02-01T05:44:36;47001.66;;;-142.92;75.75
56456;BME280;42354;53.218;6.564;2023-02-01T05:47:02;46999.59;;;-142.92;74.95
56456;BME280;42354;53.218;6.564;2023-02-01T05:49:27;46999.59;;;-142.92;74.58
56456;BME280;42354;53.218;6.564;2023-02-01T05:51:52;47003.69;;;-142.92;74.67
56456;BME280;42354;53.218;6.564;2023-02-01T05:54:18;47050.91;;;-142.92;74.87
56456;BME280;42354;53.218;6.564;2023-02-01T05:56:43;47022.16;;;-142.92;74.65
56456;BME280;42354;53.218;6.564;2023-02-01T05:59:09;47011.91;;;-142.92;74.63
56456;BME280;42354;53.218;6.564;2023-02-01T06:01:34;46997.53;;;-142.92;74.94
56456;BME280;42354;53.218;6.564;2023-02-01T06:04:00;46999.59;;;-142.92;75.11
56456;BME280;42354;53.218;6.564;2023-02-01T06:06:25;47013.97;;;-142.92;75.13
56456;BME280;42354;53.218;6.564;2023-02-01T06:08:50;47028.31;;;-142.92;75.21
56456;BME280;42354;53.218;6.564;2023-02-01T06:11:16;46999.59;;;-142.92;75.52
56456;BME280;42354;53.218;6.564;2023-02-01T06:13:41;47020.13;;;-142.92;76.09
56456;BME280;42354;53.218;6.564;2023-02-01T06:16:07;46989.34;;;-142.92;76.02
56456;BME280;42354;53.218;6.564;2023-02-01T06:18:33;46991.38;;;-142.92;76.06
56456;BME280;42354;53.218;6.564;2023-02-01T06:20:59;47011.91;;;-142.92;75.97
56456;BME280;42354;53.218;6.564;2023-02-01T06:23:26;47009.84;;;-142.92;76.03
56456;BME280;42354;53.218;6.564;2023-02-01T06:25:57;47007.81;;;-142.92;75.99
56456;BME280;42354;53.218;6.564;2023-02-01T06:28:23;46979.06;;;-142.92;76.09
56456;BME280;42354;53.218;6.564;2023-02-01T06:30:48;47007.81;;;-142.92;76.22
56456;BME280;42354;53.218;6.564;2023-02-01T06:33:14;47018.06;;;-142.92;76.69
56456;BME280;42354;53.218;6.564;2023-02-01T06:35:43;47016.00;;;-142.92;76.40
56456;BME280;42354;53.218;6.564;2023-02-01T06:38:10;46995.50;;;-142.92;76.58
56456;BME280;42354;53.218;6.564;2023-02-01T06:40:37;46999.59;;;-142.92;76.84
56456;BME280;42354;53.218;6.564;2023-02-01T06:43:02;47024.22;;;-142.92;77.10
56456;BME280;42354;53.218;6.564;2023-02-01T06:45:28;46995.50;;;-142.92;76.65
56456;BME280;42354;53.218;6.564;2023-02-01T06:47:53;47003.69;;;-142.92;76.59
56456;BME280;42354;53.218;6.564;2023-02-01T06:50:19;47011.91;;;-142.92;76.50
56456;BME280;42354;53.218;6.564;2023-02-01T06:52:44;47011.91;;;-142.92;76.66
56456;BME280;42354;53.218;6.564;2023-02-01T06:55:09;47036.53;;;-142.92;76.65
56456;BME280;42354;53.218;6.564;2023-02-01T06:57:35;47016.00;;;-142.92;77.14
56456;BME280;42354;53.218;6.564;2023-02-01T07:00:02;47001.66;;;-142.92;77.04
56456;BME280;42354;53.218;6.564;2023-02-01T07:02:28;47013.97;;;-142.92;76.97
56456;BME280;42354;53.218;6.564;2023-02-01T07:04:53;47013.97;;;-142.92;76.97
56456;BME280;42354;53.218;6.564;2023-02-01T07:07:18;47020.13;;;-142.92;77.30
56456;BME280;42354;53.218;6.564;2023-02-01T07:09:45;46999.59;;;-142.92;77.07
56456;BME280;42354;53.218;6.564;2023-02-01T07:12:10;46995.50;;;-142.92;76.29
56456;BME280;42354;53.218;6.564;2023-02-01T07:14:35;47003.69;;;-142.92;76.80
56456;BME280;42354;53.218;6.564;2023-02-01T07:17:01;46997.53;;;-142.92;76.83
56456;BME280;42354;53.218;6.564;2023-02-01T07:19:26;47007.81;;;-142.92;76.55
56456;BME280;42354;53.218;6.564;2023-02-01T07:21:52;46989.34;;;-142.92;76.17
56456;BME280;42354;53.218;6.564;2023-02-01T07:24:17;47016.00;;;-142.92;76.71
56456;BME280;42354;53.218;6.564;2023-02-01T07:26:42;47011.91;;;-142.92;76.81
56456;BME280;42354;53.218;6.564;2023-02-01T07:29:08;47003.69;;;-142.92;76.29
56456;BME280;42354;53.218;6.564;2023-02-01T07:31:33;47003.69;;;-142.92;76.31
56456;BME280;42354;53.218;6.564;2023-02-01T07:33:58;47003.69;;;-142.92;76.71
56456;BME280;42354;53.218;6.564;2023-02-01T07:36:24;47032.44;;;-142.92;77.01
56456;BME280;42354;53.218;6.564;2023-02-01T07:38:50;47011.91;;;-142.92;77.04
56456;BME280;42354;53.218;6.564;2023-02-01T07:41:17;47009.84;;;-142.92;77.14
56456;BME280;42354;53.218;6.564;2023-02-01T07:43:42;47020.13;;;-142.92;77.82
56456;BME280;42354;53.218;6.564;2023-02-01T07:46:09;47011.91;;;-142.92;77.74
56456;BME280;42354;53.218;6.564;2023-02-01T07:48:35;47018.06;;;-142.92;77.91
56456;BME280;42354;53.218;6.564;2023-02-01T07:51:04;47005.75;;;-142.92;77.73
56456;BME280;42354;53.218;6.564;2023-02-01T07:53:31;47003.69;;;-142.92;77.86
56456;BME280;42354;53.218;6.564;2023-02-01T07:55:57;47011.91;;;-142.92;78.09
56456;BME280;42354;53.218;6.564;2023-02-01T07:58:23;46985.22;;;-142.92;77.90
56456;BME280;42354;53.218;6.564;2023-02-01T08:00:49;46999.59;;;-142.92;77.95
56456;BME280;42354;53.218;6.564;2023-02-01T08:03:33;47011.91;;;-142.92;77.68
56456;BME280;42354;53.218;6.564;2023-02-01T08:05:59;46999.59;;;-142.92;77.70
56456;BME280;42354;53.218;6.564;2023-02-01T08:08:24;46993.44;;;-142.92;77.81
56456;BME280;42354;53.218;6.564;2023-02-01T08:10:49;47003.69;;;-142.92;77.63
56456;BME280;42354;53.218;6.564;2023-02-01T08:13:16;47016.00;;;-142.92;78.04
56456;BME280;42354;53.218;6.564;2023-02-01T08:15:41;47007.81;;;-142.92;77.24
56456;BME280;42354;53.218;6.564;2023-02-01T08:18:06;46997.53;;;-142.92;77.22
56456;BME280;42354;53.218;6.564;2023-02-01T08:20:33;47005.75;;;-142.92;76.92
56456;BME280;42354;53.218;6.564;2023-02-01T08:23:00;47005.75;;;-142.92;76.87
56456;BME280;42354;53.218;6.564;2023-02-01T08:25:25;46993.44;;;-142.92;76.49
56456;BME280;42354;53.218;6.564;2023-02-01T08:27:52;46995.50;;;-142.92;76.24
56456;BME280;42354;53.218;6.564;2023-02-01T08:30:19;46997.53;;;-142.92;76.53
56456;BME280;42354;53.218;6.564;2023-02-01T08:32:45;46991.38;;;-142.92;76.53
56456;BME280;42354;53.218;6.564;2023-02-01T08:35:10;47026.28;;;-142.92;76.29
56456;BME280;42354;53.218;6.564;2023-02-01T08:37:36;46987.28;;;-142.92;76.60
56456;BME280;42354;53.218;6.564;2023-02-01T08:40:02;46999.59;;;-142.92;76.76
56456;BME280;42354;53.218;6.564;2023-02-01T08:42:27;47001.66;;;-142.92;76.66
56456;BME280;42354;53.218;6.564;2023-02-01T08:45:11;47026.28;;;-142.92;76.82
56456;BME280;42354;53.218;6.564;2023-02-01T08:47:36;46997.53;;;-142.92;76.87
56456;BME280;42354;53.218;6.564;2023-02-01T08:50:02;47020.13;;;-142.92;76.48
56456;BME280;42354;53.218;6.564;2023-02-01T08:52:27;47003.69;;;-142.92;76.70
56456;BME280;42354;53.218;6.564;2023-02-01T08:54:53;47003.69;;;-142.92;76.62
56456;BME280;42354;53.218;6.564;2023-02-01T08:57:18;47003.69;;;-142.92;76.86
56456;BME280;42354;53.218;6.564;2023-02-01T08:59:44;47011.91;;;-142.92;76.64
56456;BME280;42354;53.218;6.564;2023-02-01T09:02:16;47020.13;;;-142.92;76.15
56456;BME280;42354;53.218;6.564;2023-02-01T09:04:43;47011.91;;;-142.92;76.15
56456;BME280;42354;53.218;6.564;2023-02-01T09:07:09;47026.28;;;-142.92;76.49
56456;BME280;42354;53.218;6.564;2023-02-01T09:09:35;47034.47;;;-142.92;76.26
56456;BME280;42354;53.218;6.564;2023-02-01T09:12:02;47003.69;;;-142.92;76.08
56456;BME280;42354;53.218;6.564;2023-02-01T09:14:27;47003.69;;;-142.92;76.38
56456;BME280;42354;53.218;6.564;2023-02-01T09:16:53;47026.28;;;-142.92;76.29
56456;BME280;42354;53.218;6.564;2023-02-01T09:19:18;46987.28;;;-142.92;75.43
56456;BME280;42354;53.218;6.564;2023-02-01T09:21:44;46989.34;;;-142.92;75.26
56456;BME280;42354;53.218;6.564;2023-02-01T09:24:12;47016.00;;;-142.92;75.16
56456;BME280;42354;53.218;6.564;2023-02-01T09:26:38;47007.81;;;-142.92;75.53
56456;BME280;42354;53.218;6.564;2023-02-01T09:29:03;47016.00;;;-142.92;75.38
56456;BME280;42354;53.218;6.564;2023-02-01T09:31:31;46987.28;;;-142.92;75.45
56456;BME280;42354;53.218;6.564;2023-02-01T09:33:57;46999.59;;;-142.92;75.20
56456;BME280;42354;53.218;6.564;2023-02-01T09:36:22;46999.59;;;-142.92;75.04
56456;BME280;42354;53.218;6.564;2023-02-01T09:38:48;46997.53;;;-142.92;74.82
56456;BME280;42354;53.218;6.564;2023-02-01T09:41:35;47018.06;;;-142.92;75.05
56456;BME280;42354;53.218;6.564;2023-02-01T09:44:29;46999.59;;;-142.92;74.74
56456;BME280;42354;53.218;6.564;2023-02-01T09:46:58;46993.44;;;-142.92;75.13
56456;BME280;42354;53.218;6.564;2023-02-01T09:49:30;47018.06;;;-142.92;75.75
56456;BME280;42354;53.218;6.564;2023-02-01T09:51:57;47009.84;;;-142.92;76.03
56456;BME280;42354;53.218;6.564;2023-02-01T09:54:29;47011.91;;;-142.92;76.37
56456;BME280;42354;53.218;6.564;2023-02-01T09:57:06;47022.16;;;-142.92;76.46
56456;BME280;42354;53.218;6.564;2023-02-01T09:59:42;46999.59;;;-142.92;76.76
56456;BME280;42354;53.218;6.564;2023-02-01T10:02:18;47005.75;;;-142.92;77.28
56456;BME280;42354;53.218;6.564;2023-02-01T10:04:46;46983.19;;;-142.92;77.88
56456;BME280;42354;53.218;6.564;2023-02-01T10:07:43;46991.38;;;-142.92;80.10
56456;BME280;42354;53.218;6.564;2023-02-01T10:10:15;46991.38;;;-142.92;80.97
56456;BME280;42354;53.218;6.564;2023-02-01T10:15:48;47007.81;;;-142.92;82.28
56456;BME280;42354;53.218;6.564;2023-02-01T10:24:28;47020.13;;;-142.92;81.88
56456;BME280;42354;53.218;6.564;2023-02-01T10:29:44;46999.59;;;-142.92;80.56
56456;BME280;42354;53.218;6.564;2023-02-01T10:32:23;47016.00;;;-142.92;80.92
56456;BME280;42354;53.218;6.564;2023-02-01T10:34:57;47032.44;;;-142.92;80.86
56456;BME280;42354;53.218;6.564;2023-02-01T10:37:24;46999.59;;;-142.92;80.64
56456;BME280;42354;53.218;6.564;2023-02-01T10:39:54;47011.91;;;-142.92;80.18
56456;BME280;42354;53.218;6.564;2023-02-01T10:42:24;47009.84;;;-142.92;78.64
56456;BME280;42354;53.218;6.564;2023-02-01T10:44:50;47001.66;;;-142.92;78.12
56456;BME280;42354;53.218;6.564;2023-02-01T10:47:16;47005.75;;;-142.92;77.04
56456;BME280;42354;53.218;6.564;2023-02-01T10:49:54;46991.38;;;-142.92;77.08
56456;BME280;42354;53.218;6.564;2023-02-01T10:55:32;47007.81;;;-142.92;76.20
56456;BME280;42354;53.218;6.564;2023-02-01T10:58:02;47011.91;;;-142.92;76.45
56456;BME280;42354;53.218;6.564;2023-02-01T11:00:41;46997.53;;;-142.92;75.69
56456;BME280;42354;53.218;6.564;2023-02-01T11:03:33;47018.06;;;-142.92;75.80
56456;BME280;42354;53.218;6.564;2023-02-01T11:05:59;46995.50;;;-142.92;76.58
56456;BME280;42354;53.218;6.564;2023-02-01T11:08:25;46997.53;;;-142.92;78.31
56456;BME280;42354;53.218;6.564;2023-02-01T11:11:00;47009.84;;;-142.92;80.13
56456;BME280;42354;53.218;6.564;2023-02-01T11:13:32;47018.06;;;-142.92;81.92
56456;BME280;42354;53.218;6.564;2023-02-01T11:16:03;46995.50;;;-142.92;83.24
56456;BME280;42354;53.218;6.564;2023-02-01T11:18:31;46999.59;;;-142.92;84.87
56456;BME280;42354;53.218;6.564;2023-02-01T11:21:00;47007.81;;;-142.92;85.45
56456;BME280;42354;53.218;6.564;2023-02-01T11:23:27;47009.84;;;-142.92;84.80
56456;BME280;42354;53.218;6.564;2023-02-01T11:26:01;47026.28;;;-142.92;84.22
56456;BME280;42354;53.218;6.564;2023-02-01T11:28:30;46991.38;;;-142.92;85.72
56456;BME280;42354;53.218;6.564;2023-02-01T11:31:00;47022.16;;;-142.92;86.41
56456;BME280;42354;53.218;6.564;2023-02-01T11:33:30;47007.81;;;-142.92;86.76
56456;BME280;42354;53.218;6.564;2023-02-01T11:36:21;47022.16;;;-142.92;87.54
56456;BME280;42354;53.218;6.564;2023-02-01T11:38:52;47024.22;;;-142.92;85.71
56456;BME280;42354;53.218;6.564;2023-02-01T11:41:27;47013.97;;;-142.92;82.19
56456;BME280;42354;53.218;6.564;2023-02-01T11:43:59;46987.28;;;-142.92;82.00
56456;BME280;42354;53.218;6.564;2023-02-01T11:46:30;47003.69;;;-142.92;83.95
56456;BME280;42354;53.218;6.564;2023-02-01T11:48:57;46997.53;;;-142.92;85.56
56456;BME280;42354;53.218;6.564;2023-02-01T11:54:41;47003.69;;;-142.92;87.64
56456;BME280;42354;53.218;6.564;2023-02-01T12:00:25;46991.38;;;-142.92;88.67
56456;BME280;42354;53.218;6.564;2023-02-01T12:05:48;46995.50;;;-142.92;88.55
56456;BME280;42354;53.218;6.564;2023-02-01T12:16:28;46993.44;;;-142.92;88.88
56456;BME280;42354;53.218;6.564;2023-02-01T12:24:38;47018.06;;;-142.92;86.74
56456;BME280;42354;53.218;6.564;2023-02-01T12:30:21;46997.53;;;-142.92;87.06
56456;BME280;42354;53.218;6.564;2023-02-01T12:44:00;47011.91;;;-142.92;78.37
56456;BME280;42354;53.218;6.564;2023-02-01T12:46:37;47007.81;;;-142.92;77.79
56456;BME280;42354;53.218;6.564;2023-02-01T12:49:16;47001.66;;;-142.92;77.54
56456;BME280;42354;53.218;6.564;2023-02-01T12:51:46;47016.00;;;-142.92;77.69
56456;BME280;42354;53.218;6.564;2023-02-01T12:54:31;47028.31;;;-142.92;77.04
56456;BME280;42354;53.218;6.564;2023-02-01T12:57:06;47005.75;;;-142.92;77.19
56456;BME280;42354;53.218;6.564;2023-02-01T13:02:39;47020.13;;;-142.92;76.56
56456;BME280;42354;53.218;6.564;2023-02-01T13:05:19;47013.97;;;-142.92;77.33
56456;BME280;42354;53.218;6.564;2023-02-01T13:08:02;47040.63;;;-142.92;77.28
56456;BME280;42354;53.218;6.564;2023-02-01T13:10:45;47018.06;;;-142.92;75.97
56456;BME280;42354;53.218;6.564;2023-02-01T13:13:32;47018.06;;;-142.92;75.59
56456;BME280;42354;53.218;6.564;2023-02-01T13:16:12;47011.91;;;-142.92;74.47
56456;BME280;42354;53.218;6.564;2023-02-01T13:18:41;47018.06;;;-142.92;74.27
56456;BME280;42354;53.218;6.564;2023-02-01T13:21:17;46993.44;;;-142.92;73.26
56456;BME280;42354;53.218;6.564;2023-02-01T13:23:46;47001.66;;;-142.92;73.68
56456;BME280;42354;53.218;6.564;2023-02-01T13:26:13;47032.44;;;-142.92;73.59
56456;BME280;42354;53.218;6.564;2023-02-01T13:28:46;47003.69;;;-142.92;73.23
56456;BME280;42354;53.218;6.564;2023-02-01T13:34:41;47020.13;;;-142.92;73.92
56456;BME280;42354;53.218;6.564;2023-02-01T13:42:17;47007.81;;;-142.92;73.15
56456;BME280;42354;53.218;6.564;2023-02-01T13:47:24;47020.13;;;-142.92;73.49
56456;BME280;42354;53.218;6.564;2023-02-01T13:49:51;47009.84;;;-142.92;73.76
56456;BME280;42354;53.218;6.564;2023-02-01T13:52:27;46991.38;;;-142.92;73.45
56456;BME280;42354;53.218;6.564;2023-02-01T13:55:24;47028.31;;;-142.92;73.94
56456;BME280;42354;53.218;6.564;2023-02-01T13:58:02;47001.66;;;-142.92;74.09
56456;BME280;42354;53.218;6.564;2023-02-01T14:08:10;47013.97;;;-142.92;74.89
56456;BME280;42354;53.218;6.564;2023-02-01T14:10:57;47024.22;;;-142.92;74.76
56456;BME280;42354;53.218;6.564;2023-02-01T14:21:22;47016.00;;;-142.92;74.74
56456;BME280;42354;53.218;6.564;2023-02-01T14:34:14;47003.69;;;-142.92;75.25
56456;BME280;42354;53.218;6.564;2023-02-01T14:36:44;47007.81;;;-142.92;75.73